sensor_id;sensor_type;location;lat;lon;timestamp;P1;durP1;ratioP1;P2;durP2;ratioP2
24161;SDS011;12318;51.262;7.066;2022-12-26T00:01:21;15.38;;;9.77;;
24161;SDS011;12318;51.262;7.066;2022-12-26T00:06:33;16.58;;;10.00;;
24161;SDS011;12318;51.262;7.066;2022-12-26T00:08:59;12.80;;;7.38;;
24161;SDS011;12318;51.262;7.066;2022-12-26T00:11:27;15.98;;;9.85;;
24161;SDS011;12318;51.262;7.066;2022-12-26T00:14:06;19.70;;;11.00;;
24161;SDS011;12318;51.262;7.066;2022-12-26T00:16:34;13.93;;;8.45;;
24161;SDS011;12318;51.262;7.066;2022-12-26T00:19:01;20.25;;;9.73;;
24161;SDS011;12318;51.262;7.066;2022-12-26T00:21:28;22.55;;;9.35;;
24161;SDS011;12318;51.262;7.066;2022-12-26T00:24:09;18.17;;;8.55;;
24161;SDS011;12318;51.262;7.066;2022-12-26T00:26:38;15.32;;;8.82;;
24161;SDS011;12318;51.262;7.066;2022-12-26T00:29:04;14.88;;;7.45;;
24161;SDS011;12318;51.262;7.066;2022-12-26T00:31:30;15.27;;;8.23;;
24161;SDS011;12318;51.262;7.066;2022-12-26T00:34:04;15.63;;;8.23;;
24161;SDS011;12318;51.262;7.066;2022-12-26T00:36:31;13.63;;;6.88;;
24161;SDS011;12318;51.262;7.066;2022-12-26T00:38:58;11.10;;;6.57;;
24161;SDS011;12318;51.262;7.066;2022-12-26T00:41:25;12.30;;;6.57;;
24161;SDS011;12318;51.262;7.066;2022-12-26T00:43:58;12.73;;;6.55;;
24161;SDS011;12318;51.262;7.066;2022-12-26T00:46:24;10.98;;;6.28;;
24161;SDS011;12318;51.262;7.066;2022-12-26T00:48:51;12.57;;;6.40;;
24161;SDS011;12318;51.262;7.066;2022-12-26T00:51:20;13.02;;;6.00;;
24161;SDS011;12318;51.262;7.066;2022-12-26T00:53:45;10.38;;;5.65;;
24161;SDS011;12318;51.262;7.066;2022-12-26T00:56:11;13.38;;;5.63;;
24161;SDS011;12318;51.262;7.066;2022-12-26T00:58:37;12.15;;;5.90;;
24161;SDS011;12318;51.262;7.066;2022-12-26T01:01:08;15.23;;;5.70;;
24161;SDS011;12318;51.262;7.066;2022-12-26T01:03:58;11.45;;;5.53;;
24161;SDS011;12318;51.262;7.066;2022-12-26T01:06:24;10.77;;;5.20;;
24161;SDS011;12318;51.262;7.066;2022-12-26T01:08:49;10.25;;;5.05;;
24161;SDS011;12318;51.262;7.066;2022-12-26T01:11:16;9.73;;;4.95;;
24161;SDS011;12318;51.262;7.066;2022-12-26T01:14:05;12.30;;;5.60;;
24161;SDS011;12318;51.262;7.066;2022-12-26T01:16:32;6.03;;;4.28;;
24161;SDS011;12318;51.262;7.066;2022-12-26T01:18:58;10.20;;;4.90;;
24161;SDS011;12318;51.262;7.066;2022-12-26T01:21:24;7.88;;;4.82;;
24161;SDS011;12318;51.262;7.066;2022-12-26T01:23:51;8.48;;;4.60;;
24161;SDS011;12318;51.262;7.066;2022-12-26T01:26:16;8.98;;;4.10;;
24161;SDS011;12318;51.262;7.066;2022-12-26T01:28:42;8.50;;;4.70;;
24161;SDS011;12318;51.262;7.066;2022-12-26T01:31:08;8.05;;;4.65;;
24161;SDS011;12318;51.262;7.066;2022-12-26T01:33:36;14.55;;;4.57;;
24161;SDS011;12318;51.262;7.066;2022-12-26T01:36:01;11.55;;;4.32;;
24161;SDS011;12318;51.262;7.066;2022-12-26T01:38:27;6.43;;;4.25;;
24161;SDS011;12318;51.262;7.066;2022-12-26T01:40:53;9.90;;;4.10;;
24161;SDS011;12318;51.262;7.066;2022-12-26T01:46:15;9.23;;;4.40;;
24161;SDS011;12318;51.262;7.066;2022-12-26T01:48:43;8.75;;;4.63;;
24161;SDS011;12318;51.262;7.066;2022-12-26T01:51:10;15.82;;;4.72;;
24161;SDS011;12318;51.262;7.066;2022-12-26T01:53:42;11.60;;;4.43;;
24161;SDS011;12318;51.262;7.066;2022-12-26T01:56:16;10.20;;;4.32;;
24161;SDS011;12318;51.262;7.066;2022-12-26T01:59:14;13.50;;;5.25;;
24161;SDS011;12318;51.262;7.066;2022-12-26T02:02:03;12.52;;;4.82;;
24161;SDS011;12318;51.262;7.066;2022-12-26T02:04:32;9.27;;;5.07;;
24161;SDS011;12318;51.262;7.066;2022-12-26T02:07:19;11.93;;;5.40;;
24161;SDS011;12318;51.262;7.066;2022-12-26T02:09:45;11.80;;;5.80;;
24161;SDS011;12318;51.262;7.066;2022-12-26T02:12:24;8.40;;;4.32;;
24161;SDS011;12318;51.262;7.066;2022-12-26T02:14:55;10.40;;;4.95;;
24161;SDS011;12318;51.262;7.066;2022-12-26T02:17:22;12.32;;;4.82;;
24161;SDS011;12318;51.262;7.066;2022-12-26T02:20:08;12.57;;;5.07;;
24161;SDS011;12318;51.262;7.066;2022-12-26T02:37:30;9.45;;;4.47;;
24161;SDS011;12318;51.262;7.066;2022-12-26T02:45:42;14.63;;;6.25;;
24161;SDS011;12318;51.262;7.066;2022-12-26T02:51:13;14.68;;;6.13;;
24161;SDS011;12318;51.262;7.066;2022-12-26T02:54:28;16.42;;;6.70;;
24161;SDS011;12318;51.262;7.066;2022-12-26T02:57:30;16.30;;;7.25;;
24161;SDS011;12318;51.262;7.066;2022-12-26T03:00:56;12.55;;;5.90;;
24161;SDS011;12318;51.262;7.066;2022-12-26T03:03:44;12.75;;;6.07;;
24161;SDS011;12318;51.262;7.066;2022-12-26T03:06:33;16.42;;;6.38;;
24161;SDS011;12318;51.262;7.066;2022-12-26T03:09:20;14.95;;;5.45;;
24161;SDS011;12318;51.262;7.066;2022-12-26T03:15:08;15.82;;;7.47;;
24161;SDS011;12318;51.262;7.066;2022-12-26T03:17:38;15.27;;;7.45;;
24161;SDS011;12318;51.262;7.066;2022-12-26T03:20:09;12.98;;;5.55;;
24161;SDS011;12318;51.262;7.066;2022-12-26T03:28:29;11.65;;;5.28;;
24161;SDS011;12318;51.262;7.066;2022-12-26T03:30:55;13.10;;;5.97;;
24161;SDS011;12318;51.262;7.066;2022-12-26T03:33:36;15.85;;;6.30;;
24161;SDS011;12318;51.262;7.066;2022-12-26T03:36:26;16.65;;;5.93;;
24161;SDS011;12318;51.262;7.066;2022-12-26T03:44:32;11.50;;;5.82;;
24161;SDS011;12318;51.262;7.066;2022-12-26T03:47:26;11.43;;;6.22;;
24161;SDS011;12318;51.262;7.066;2022-12-26T03:50:30;13.43;;;6.45;;
24161;SDS011;12318;51.262;7.066;2022-12-26T03:53:32;12.95;;;6.32;;
24161;SDS011;12318;51.262;7.066;2022-12-26T03:59:13;10.57;;;5.68;;
24161;SDS011;12318;51.262;7.066;2022-12-26T04:02:04;15.90;;;8.13;;
24161;SDS011;12318;51.262;7.066;2022-12-26T04:04:52;16.48;;;8.32;;
24161;SDS011;12318;51.262;7.066;2022-12-26T04:07:46;15.18;;;8.15;;
24161;SDS011;12318;51.262;7.066;2022-12-26T04:10:42;14.88;;;9.20;;
24161;SDS011;12318;51.262;7.066;2022-12-26T04:16:38;6.85;;;4.50;;
24161;SDS011;12318;51.262;7.066;2022-12-26T04:22:33;10.38;;;5.95;;
24161;SDS011;12318;51.262;7.066;2022-12-26T04:25:29;7.85;;;5.97;;
24161;SDS011;12318;51.262;7.066;2022-12-26T04:28:19;10.38;;;6.07;;
24161;SDS011;12318;51.262;7.066;2022-12-26T04:31:06;6.57;;;4.93;;
24161;SDS011;12318;51.262;7.066;2022-12-26T04:33:57;6.30;;;5.13;;
24161;SDS011;12318;51.262;7.066;2022-12-26T04:36:48;6.55;;;4.30;;
24161;SDS011;12318;51.262;7.066;2022-12-26T04:39:36;8.27;;;5.25;;
24161;SDS011;12318;51.262;7.066;2022-12-26T04:42:23;8.15;;;5.50;;
24161;SDS011;12318;51.262;7.066;2022-12-26T04:45:09;10.48;;;6.00;;
24161;SDS011;12318;51.262;7.066;2022-12-26T04:47:36;9.10;;;6.82;;
24161;SDS011;12318;51.262;7.066;2022-12-26T04:50:05;10.15;;;6.57;;
24161;SDS011;12318;51.262;7.066;2022-12-26T04:52:38;9.10;;;5.88;;
24161;SDS011;12318;51.262;7.066;2022-12-26T04:55:31;15.98;;;6.78;;
24161;SDS011;12318;51.262;7.066;2022-12-26T04:57:59;8.38;;;5.97;;
24161;SDS011;12318;51.262;7.066;2022-12-26T05:00:26;12.52;;;6.72;;
24161;SDS011;12318;51.262;7.066;2022-12-26T05:02:53;9.50;;;5.97;;
24161;SDS011;12318;51.262;7.066;2022-12-26T05:05:39;11.00;;;6.07;;
24161;SDS011;12318;51.262;7.066;2022-12-26T05:08:29;9.52;;;5.63;;
24161;SDS011;12318;51.262;7.066;2022-12-26T05:11:18;8.40;;;6.07;;
24161;SDS011;12318;51.262;7.066;2022-12-26T05:13:57;8.00;;;5.57;;
24161;SDS011;12318;51.262;7.066;2022-12-26T05:16:23;9.48;;;6.22;;
24161;SDS011;12318;51.262;7.066;2022-12-26T05:19:12;8.73;;;5.97;;
24161;SDS011;12318;51.262;7.066;2022-12-26T05:22:00;8.38;;;5.65;;
24161;SDS011;12318;51.262;7.066;2022-12-26T05:24:46;13.13;;;6.47;;
24161;SDS011;12318;51.262;7.066;2022-12-26T05:27:35;10.40;;;6.43;;
24161;SDS011;12318;51.262;7.066;2022-12-26T05:30:22;8.65;;;6.05;;
24161;SDS011;12318;51.262;7.066;2022-12-26T05:32:54;10.52;;;6.68;;
24161;SDS011;12318;51.262;7.066;2022-12-26T05:35:38;10.80;;;7.15;;
24161;SDS011;12318;51.262;7.066;2022-12-26T05:38:04;10.35;;;7.20;;
24161;SDS011;12318;51.262;7.066;2022-12-26T05:40:30;13.65;;;7.93;;
24161;SDS011;12318;51.262;7.066;2022-12-26T05:42:56;12.75;;;7.07;;
24161;SDS011;12318;51.262;7.066;2022-12-26T05:45:22;12.10;;;7.97;;
24161;SDS011;12318;51.262;7.066;2022-12-26T05:47:48;14.63;;;8.32;;
24161;SDS011;12318;51.262;7.066;2022-12-26T05:50:13;11.73;;;8.25;;
24161;SDS011;12318;51.262;7.066;2022-12-26T05:56:05;16.92;;;10.05;;
24161;SDS011;12318;51.262;7.066;2022-12-26T05:58:32;12.05;;;9.23;;
24161;SDS011;12318;51.262;7.066;2022-12-26T06:01:09;9.88;;;8.35;;
24161;SDS011;12318;51.262;7.066;2022-12-26T06:03:40;13.75;;;8.57;;
24161;SDS011;12318;51.262;7.066;2022-12-26T06:06:07;15.55;;;9.40;;
24161;SDS011;12318;51.262;7.066;2022-12-26T06:08:34;13.13;;;9.77;;
24161;SDS011;12318;51.262;7.066;2022-12-26T06:11:04;12.27;;;8.40;;
24161;SDS011;12318;51.262;7.066;2022-12-26T06:13:31;11.85;;;8.60;;
24161;SDS011;12318;51.262;7.066;2022-12-26T06:15:57;13.85;;;8.05;;
24161;SDS011;12318;51.262;7.066;2022-12-26T06:18:23;15.88;;;9.75;;
24161;SDS011;12318;51.262;7.066;2022-12-26T06:20:49;11.18;;;8.18;;
24161;SDS011;12318;51.262;7.066;2022-12-26T06:23:16;9.07;;;7.20;;
24161;SDS011;12318;51.262;7.066;2022-12-26T06:25:42;17.48;;;9.63;;
24161;SDS011;12318;51.262;7.066;2022-12-26T06:28:07;12.55;;;8.98;;
24161;SDS011;12318;51.262;7.066;2022-12-26T06:30:33;11.35;;;6.32;;
24161;SDS011;12318;51.262;7.066;2022-12-26T06:33:14;10.75;;;7.82;;
24161;SDS011;12318;51.262;7.066;2022-12-26T06:35:40;13.03;;;8.20;;
24161;SDS011;12318;51.262;7.066;2022-12-26T06:38:05;14.60;;;9.07;;
24161;SDS011;12318;51.262;7.066;2022-12-26T06:40:31;11.75;;;8.15;;
24161;SDS011;12318;51.262;7.066;2022-12-26T06:45:59;10.98;;;7.60;;
24161;SDS011;12318;51.262;7.066;2022-12-26T06:48:26;12.30;;;8.55;;
24161;SDS011;12318;51.262;7.066;2022-12-26T06:50:52;11.88;;;8.68;;
24161;SDS011;12318;51.262;7.066;2022-12-26T06:53:22;16.00;;;10.05;;
24161;SDS011;12318;51.262;7.066;2022-12-26T06:55:49;15.07;;;10.65;;
24161;SDS011;12318;51.262;7.066;2022-12-26T06:58:15;15.63;;;11.02;;
24161;SDS011;12318;51.262;7.066;2022-12-26T07:00:41;17.27;;;11.88;;
24161;SDS011;12318;51.262;7.066;2022-12-26T07:03:07;15.88;;;10.43;;
24161;SDS011;12318;51.262;7.066;2022-12-26T07:05:35;16.75;;;12.57;;
24161;SDS011;12318;51.262;7.066;2022-12-26T07:08:01;15.73;;;11.02;;
24161;SDS011;12318;51.262;7.066;2022-12-26T07:10:27;14.82;;;9.55;;
24161;SDS011;12318;51.262;7.066;2022-12-26T07:12:54;14.80;;;9.60;;
24161;SDS011;12318;51.262;7.066;2022-12-26T07:15:19;12.30;;;8.70;;
24161;SDS011;12318;51.262;7.066;2022-12-26T07:17:45;10.75;;;7.78;;
24161;SDS011;12318;51.262;7.066;2022-12-26T07:20:11;13.88;;;8.00;;
24161;SDS011;12318;51.262;7.066;2022-12-26T07:22:37;12.88;;;7.43;;
24161;SDS011;12318;51.262;7.066;2022-12-26T07:25:03;13.45;;;7.47;;
24161;SDS011;12318;51.262;7.066;2022-12-26T07:27:29;14.80;;;6.78;;
24161;SDS011;12318;51.262;7.066;2022-12-26T07:29:55;10.10;;;5.88;;
24161;SDS011;12318;51.262;7.066;2022-12-26T07:32:20;9.38;;;4.85;;
24161;SDS011;12318;51.262;7.066;2022-12-26T07:34:46;10.88;;;4.95;;
24161;SDS011;12318;51.262;7.066;2022-12-26T07:37:12;10.88;;;4.80;;
24161;SDS011;12318;51.262;7.066;2022-12-26T07:39:37;10.15;;;4.60;;
24161;SDS011;12318;51.262;7.066;2022-12-26T07:42:13;9.93;;;4.20;;
24161;SDS011;12318;51.262;7.066;2022-12-26T07:44:39;8.63;;;4.15;;
24161;SDS011;12318;51.262;7.066;2022-12-26T07:47:06;9.82;;;4.30;;
24161;SDS011;12318;51.262;7.066;2022-12-26T07:49:31;10.70;;;4.30;;
24161;SDS011;12318;51.262;7.066;2022-12-26T07:55:08;9.25;;;4.18;;
24161;SDS011;12318;51.262;7.066;2022-12-26T07:57:33;10.18;;;3.53;;
24161;SDS011;12318;51.262;7.066;2022-12-26T07:59:59;7.22;;;3.97;;
24161;SDS011;12318;51.262;7.066;2022-12-26T08:02:41;12.50;;;4.50;;
24161;SDS011;12318;51.262;7.066;2022-12-26T08:05:07;9.95;;;3.88;;
24161;SDS011;12318;51.262;7.066;2022-12-26T08:07:33;6.38;;;3.25;;
24161;SDS011;12318;51.262;7.066;2022-12-26T08:09:59;5.22;;;2.53;;
24161;SDS011;12318;51.262;7.066;2022-12-26T08:12:31;5.82;;;2.60;;
24161;SDS011;12318;51.262;7.066;2022-12-26T08:14:57;5.18;;;2.30;;
24161;SDS011;12318;51.262;7.066;2022-12-26T08:17:23;4.63;;;2.10;;
24161;SDS011;12318;51.262;7.066;2022-12-26T08:19:49;4.18;;;2.05;;
24161;SDS011;12318;51.262;7.066;2022-12-26T08:22:20;3.67;;;2.10;;
24161;SDS011;12318;51.262;7.066;2022-12-26T08:24:46;4.57;;;1.50;;
24161;SDS011;12318;51.262;7.066;2022-12-26T08:27:11;3.13;;;1.42;;
24161;SDS011;12318;51.262;7.066;2022-12-26T08:29:37;2.47;;;1.50;;
24161;SDS011;12318;51.262;7.066;2022-12-26T08:32:03;2.58;;;1.35;;
24161;SDS011;12318;51.262;7.066;2022-12-26T08:34:33;4.40;;;2.00;;
24161;SDS011;12318;51.262;7.066;2022-12-26T08:36:59;1.90;;;1.23;;
24161;SDS011;12318;51.262;7.066;2022-12-26T08:39:25;2.80;;;1.30;;
24161;SDS011;12318;51.262;7.066;2022-12-26T08:41:52;2.22;;;1.40;;
24161;SDS011;12318;51.262;7.066;2022-12-26T08:44:18;3.78;;;1.30;;
24161;SDS011;12318;51.262;7.066;2022-12-26T08:46:44;2.45;;;1.23;;
24161;SDS011;12318;51.262;7.066;2022-12-26T08:49:10;3.38;;;1.10;;
24161;SDS011;12318;51.262;7.066;2022-12-26T08:54:23;2.20;;;1.33;;
24161;SDS011;12318;51.262;7.066;2022-12-26T08:56:49;4.22;;;1.10;;
24161;SDS011;12318;51.262;7.066;2022-12-26T08:59:15;1.48;;;1.05;;
24161;SDS011;12318;51.262;7.066;2022-12-26T09:01:58;7.00;;;1.23;;
24161;SDS011;12318;51.262;7.066;2022-12-26T09:04:23;3.40;;;1.63;;
24161;SDS011;12318;51.262;7.066;2022-12-26T09:06:49;6.75;;;1.20;;
24161;SDS011;12318;51.262;7.066;2022-12-26T09:09:15;3.42;;;1.00;;
24161;SDS011;12318;51.262;7.066;2022-12-26T09:11:45;4.97;;;1.20;;
24161;SDS011;12318;51.262;7.066;2022-12-26T09:14:10;3.20;;;1.10;;
24161;SDS011;12318;51.262;7.066;2022-12-26T09:16:40;1.52;;;0.98;;
24161;SDS011;12318;51.262;7.066;2022-12-26T09:19:11;4.47;;;1.30;;
24161;SDS011;12318;51.262;7.066;2022-12-26T09:21:38;4.47;;;1.35;;
24161;SDS011;12318;51.262;7.066;2022-12-26T09:24:10;1.85;;;0.80;;
24161;SDS011;12318;51.262;7.066;2022-12-26T09:26:37;5.45;;;1.30;;
24161;SDS011;12318;51.262;7.066;2022-12-26T09:29:03;4.18;;;1.10;;
24161;SDS011;12318;51.262;7.066;2022-12-26T09:31:30;4.47;;;1.10;;
24161;SDS011;12318;51.262;7.066;2022-12-26T09:34:07;3.42;;;1.20;;
24161;SDS011;12318;51.262;7.066;2022-12-26T09:36:34;4.05;;;1.08;;
24161;SDS011;12318;51.262;7.066;2022-12-26T09:39:02;5.57;;;1.30;;
24161;SDS011;12318;51.262;7.066;2022-12-26T09:57:49;6.70;;;1.40;;
24161;SDS011;12318;51.262;7.066;2022-12-26T10:00:18;6.68;;;1.38;;
24161;SDS011;12318;51.262;7.066;2022-12-26T10:02:52;3.55;;;1.10;;
24161;SDS011;12318;51.262;7.066;2022-12-26T10:05:21;5.60;;;1.33;;
24161;SDS011;12318;51.262;7.066;2022-12-26T10:07:55;3.25;;;1.23;;
24161;SDS011;12318;51.262;7.066;2022-12-26T10:13:17;4.60;;;1.40;;
24161;SDS011;12318;51.262;7.066;2022-12-26T10:16:13;5.85;;;1.35;;
24161;SDS011;12318;51.262;7.066;2022-12-26T10:19:22;3.22;;;1.00;;
24161;SDS011;12318;51.262;7.066;2022-12-26T10:22:07;4.13;;;1.20;;
24161;SDS011;12318;51.262;7.066;2022-12-26T10:25:07;3.78;;;1.15;;
24161;SDS011;12318;51.262;7.066;2022-12-26T10:27:41;8.18;;;1.65;;
24161;SDS011;12318;51.262;7.066;2022-12-26T10:30:14;11.98;;;1.60;;
24161;SDS011;12318;51.262;7.066;2022-12-26T10:32:47;6.80;;;1.75;;
24161;SDS011;12318;51.262;7.066;2022-12-26T10:35:27;6.20;;;1.80;;
24161;SDS011;12318;51.262;7.066;2022-12-26T10:37:55;5.38;;;1.70;;
24161;SDS011;12318;51.262;7.066;2022-12-26T10:40:27;8.27;;;1.67;;
24161;SDS011;12318;51.262;7.066;2022-12-26T10:43:34;4.32;;;1.20;;
24161;SDS011;12318;51.262;7.066;2022-12-26T10:48:44;5.20;;;1.20;;
24161;SDS011;12318;51.262;7.066;2022-12-26T10:51:11;12.23;;;1.50;;
24161;SDS011;12318;51.262;7.066;2022-12-26T10:53:42;5.78;;;1.30;;
24161;SDS011;12318;51.262;7.066;2022-12-26T10:56:19;5.53;;;1.38;;
24161;SDS011;12318;51.262;7.066;2022-12-26T10:59:22;7.38;;;1.20;;
24161;SDS011;12318;51.262;7.066;2022-12-26T11:01:42;6.63;;;1.20;;
24161;SDS011;12318;51.262;7.066;2022-12-26T11:06:54;3.60;;;1.02;;
24161;SDS011;12318;51.262;7.066;2022-12-26T11:09:33;5.28;;;0.95;;
24161;SDS011;12318;51.262;7.066;2022-12-26T11:12:03;4.32;;;1.10;;
24161;SDS011;12318;51.262;7.066;2022-12-26T11:14:34;6.45;;;1.50;;
24161;SDS011;12318;51.262;7.066;2022-12-26T11:17:12;2.47;;;0.88;;
24161;SDS011;12318;51.262;7.066;2022-12-26T11:20:09;7.75;;;1.30;;
24161;SDS011;12318;51.262;7.066;2022-12-26T11:23:11;4.32;;;1.20;;
24161;SDS011;12318;51.262;7.066;2022-12-26T11:25:52;6.03;;;1.17;;
24161;SDS011;12318;51.262;7.066;2022-12-26T11:28:23;5.80;;;1.23;;
24161;SDS011;12318;51.262;7.066;2022-12-26T11:30:51;8.00;;;1.10;;
24161;SDS011;12318;51.262;7.066;2022-12-26T11:33:29;4.35;;;1.20;;
24161;SDS011;12318;51.262;7.066;2022-12-26T11:36:21;3.45;;;1.23;;
24161;SDS011;12318;51.262;7.066;2022-12-26T11:38:53;4.97;;;1.13;;
24161;SDS011;12318;51.262;7.066;2022-12-26T12:00:36;6.18;;;1.30;;
24161;SDS011;12318;51.262;7.066;2022-12-26T12:03:15;8.00;;;1.20;;
24161;SDS011;12318;51.262;7.066;2022-12-26T12:09:04;5.25;;;1.00;;
24161;SDS011;12318;51.262;7.066;2022-12-26T12:14:02;5.75;;;1.00;;
24161;SDS011;12318;51.262;7.066;2022-12-26T12:25:02;3.72;;;0.82;;
24161;SDS011;12318;51.262;7.066;2022-12-26T12:27:53;5.57;;;0.90;;
24161;SDS011;12318;51.262;7.066;2022-12-26T12:31:47;6.05;;;1.13;;
24161;SDS011;12318;51.262;7.066;2022-12-26T12:37:05;4.85;;;1.00;;
24161;SDS011;12318;51.262;7.066;2022-12-26T12:39:14;3.10;;;1.02;;
24161;SDS011;12318;51.262;7.066;2022-12-26T12:50:37;5.25;;;1.25;;
24161;SDS011;12318;51.262;7.066;2022-12-26T13:04:09;7.57;;;1.80;;
24161;SDS011;12318;51.262;7.066;2022-12-26T13:06:57;3.95;;;1.55;;
24161;SDS011;12318;51.262;7.066;2022-12-26T13:10:15;10.80;;;2.00;;
24161;SDS011;12318;51.262;7.066;2022-12-26T13:12:29;8.13;;;1.63;;
24161;SDS011;12318;51.262;7.066;2022-12-26T13:23:12;5.88;;;2.60;;
24161;SDS011;12318;51.262;7.066;2022-12-26T13:28:38;4.70;;;1.30;;
24161;SDS011;12318;51.262;7.066;2022-12-26T13:31:15;3.97;;;1.20;;
24161;SDS011;12318;51.262;7.066;2022-12-26T13:33:42;3.78;;;1.10;;
24161;SDS011;12318;51.262;7.066;2022-12-26T13:36:08;5.20;;;1.20;;
24161;SDS011;12318;51.262;7.066;2022-12-26T13:41:25;4.85;;;1.15;;
24161;SDS011;12318;51.262;7.066;2022-12-26T13:49:30;7.72;;;1.15;;
24161;SDS011;12318;51.262;7.066;2022-12-26T13:54:35;5.38;;;1.52;;
24161;SDS011;12318;51.262;7.066;2022-12-26T14:08:00;8.50;;;1.77;;
24161;SDS011;12318;51.262;7.066;2022-12-26T14:18:46;6.03;;;1.73;;
24161;SDS011;12318;51.262;7.066;2022-12-26T14:27:25;7.32;;;1.50;;
24161;SDS011;12318;51.262;7.066;2022-12-26T14:41:27;9.65;;;2.03;;
24161;SDS011;12318;51.262;7.066;2022-12-26T14:47:01;6.75;;;1.73;;
24161;SDS011;12318;51.262;7.066;2022-12-26T14:52:39;9.82;;;1.90;;
24161;SDS011;12318;51.262;7.066;2022-12-26T14:54:49;8.27;;;1.88;;
24161;SDS011;12318;51.262;7.066;2022-12-26T15:00:15;8.45;;;2.17;;
24161;SDS011;12318;51.262;7.066;2022-12-26T15:05:26;10.10;;;2.10;;
24161;SDS011;12318;51.262;7.066;2022-12-26T15:13:58;10.13;;;2.92;;
24161;SDS011;12318;51.262;7.066;2022-12-26T15:30:58;11.25;;;3.30;;
24161;SDS011;12318;51.262;7.066;2022-12-26T15:36:30;9.23;;;3.35;;
24161;SDS011;12318;51.262;7.066;2022-12-26T15:44:39;14.23;;;4.55;;
24161;SDS011;12318;51.262;7.066;2022-12-26T15:47:17;13.68;;;5.68;;
24161;SDS011;12318;51.262;7.066;2022-12-26T15:58:32;16.50;;;7.88;;
24161;SDS011;12318;51.262;7.066;2022-12-26T16:01:01;17.52;;;8.68;;
24161;SDS011;12318;51.262;7.066;2022-12-26T16:03:36;16.88;;;7.05;;
24161;SDS011;12318;51.262;7.066;2022-12-26T16:08:58;12.70;;;3.75;;
24161;SDS011;12318;51.262;7.066;2022-12-26T16:14:24;11.65;;;3.45;;
24161;SDS011;12318;51.262;7.066;2022-12-26T16:19:55;10.85;;;2.40;;
24161;SDS011;12318;51.262;7.066;2022-12-26T16:22:29;9.05;;;2.00;;
24161;SDS011;12318;51.262;7.066;2022-12-26T16:25:09;12.38;;;2.45;;
24161;SDS011;12318;51.262;7.066;2022-12-26T16:27:38;9.55;;;1.80;;
24161;SDS011;12318;51.262;7.066;2022-12-26T16:30:12;10.80;;;2.08;;
24161;SDS011;12318;51.262;7.066;2022-12-26T16:32:42;8.98;;;2.20;;
24161;SDS011;12318;51.262;7.066;2022-12-26T16:35:24;6.82;;;2.08;;
24161;SDS011;12318;51.262;7.066;2022-12-26T16:37:52;7.55;;;2.38;;
24161;SDS011;12318;51.262;7.066;2022-12-26T16:45:25;6.95;;;2.20;;
24161;SDS011;12318;51.262;7.066;2022-12-26T16:47:52;9.52;;;1.80;;
24161;SDS011;12318;51.262;7.066;2022-12-26T16:50:20;9.15;;;2.17;;
24161;SDS011;12318;51.262;7.066;2022-12-26T16:52:48;9.73;;;2.08;;
24161;SDS011;12318;51.262;7.066;2022-12-26T17:00:22;7.38;;;1.85;;
24161;SDS011;12318;51.262;7.066;2022-12-26T17:02:52;9.30;;;2.03;;
24161;SDS011;12318;51.262;7.066;2022-12-26T17:05:29;7.93;;;2.45;;
24161;SDS011;12318;51.262;7.066;2022-12-26T17:08:00;9.35;;;2.20;;
24161;SDS011;12318;51.262;7.066;2022-12-26T17:10:36;11.18;;;2.47;;
24161;SDS011;12318;51.262;7.066;2022-12-26T17:13:03;6.75;;;2.38;;
24161;SDS011;12318;51.262;7.066;2022-12-26T17:15:36;7.75;;;2.65;;
24161;SDS011;12318;51.262;7.066;2022-12-26T17:18:53;7.43;;;2.20;;
24161;SDS011;12318;51.262;7.066;2022-12-26T17:21:24;11.90;;;1.95;;
24161;SDS011;12318;51.262;7.066;2022-12-26T17:27:09;7.95;;;1.95;;
24161;SDS011;12318;51.262;7.066;2022-12-26T17:32:59;6.75;;;2.10;;
24161;SDS011;12318;51.262;7.066;2022-12-26T17:35:12;11.60;;;2.70;;
24161;SDS011;12318;51.262;7.066;2022-12-26T17:38:00;12.40;;;2.28;;
24161;SDS011;12318;51.262;7.066;2022-12-26T17:43:07;5.78;;;2.15;;
24161;SDS011;12318;51.262;7.066;2022-12-26T17:45:43;7.03;;;2.25;;
24161;SDS011;12318;51.262;7.066;2022-12-26T17:48:09;7.43;;;2.15;;
24161;SDS011;12318;51.262;7.066;2022-12-26T17:50:37;5.32;;;1.92;;
24161;SDS011;12318;51.262;7.066;2022-12-26T17:55:56;11.95;;;2.08;;
24161;SDS011;12318;51.262;7.066;2022-12-26T17:58:25;8.63;;;2.30;;
24161;SDS011;12318;51.262;7.066;2022-12-26T18:00:52;9.38;;;2.10;;
24161;SDS011;12318;51.262;7.066;2022-12-26T18:03:18;7.80;;;2.00;;
24161;SDS011;12318;51.262;7.066;2022-12-26T18:05:45;6.75;;;1.92;;
24161;SDS011;12318;51.262;7.066;2022-12-26T18:10:57;7.00;;;1.92;;
24161;SDS011;12318;51.262;7.066;2022-12-26T18:13:24;8.07;;;1.60;;
24161;SDS011;12318;51.262;7.066;2022-12-26T18:15:56;8.93;;;2.13;;
24161;SDS011;12318;51.262;7.066;2022-12-26T18:18:26;8.70;;;2.13;;
24161;SDS011;12318;51.262;7.066;2022-12-26T18:20:57;5.03;;;1.80;;
24161;SDS011;12318;51.262;7.066;2022-12-26T18:23:23;9.02;;;2.20;;
24161;SDS011;12318;51.262;7.066;2022-12-26T18:25:48;4.30;;;1.60;;
24161;SDS011;12318;51.262;7.066;2022-12-26T18:28:16;5.97;;;2.05;;
24161;SDS011;12318;51.262;7.066;2022-12-26T18:30:42;4.07;;;1.70;;
24161;SDS011;12318;51.262;7.066;2022-12-26T18:33:09;6.93;;;2.22;;
24161;SDS011;12318;51.262;7.066;2022-12-26T18:35:39;7.18;;;1.90;;
24161;SDS011;12318;51.262;7.066;2022-12-26T18:38:07;11.70;;;2.10;;
24161;SDS011;12318;51.262;7.066;2022-12-26T18:40:37;8.18;;;2.13;;
24161;SDS011;12318;51.262;7.066;2022-12-26T18:43:07;12.18;;;2.60;;
24161;SDS011;12318;51.262;7.066;2022-12-26T18:45:33;8.63;;;1.90;;
24161;SDS011;12318;51.262;7.066;2022-12-26T18:48:01;9.95;;;2.13;;
24161;SDS011;12318;51.262;7.066;2022-12-26T18:50:28;9.40;;;2.15;;
24161;SDS011;12318;51.262;7.066;2022-12-26T18:52:55;10.52;;;2.15;;
24161;SDS011;12318;51.262;7.066;2022-12-26T18:55:21;5.78;;;1.88;;
24161;SDS011;12318;51.262;7.066;2022-12-26T18:57:53;6.80;;;1.63;;
24161;SDS011;12318;51.262;7.066;2022-12-26T19:02:46;11.20;;;2.30;;
24161;SDS011;12318;51.262;7.066;2022-12-26T19:05:17;10.60;;;2.45;;
24161;SDS011;12318;51.262;7.066;2022-12-26T19:08:08;11.02;;;2.72;;
24161;SDS011;12318;51.262;7.066;2022-12-26T19:10:35;8.82;;;2.30;;
24161;SDS011;12318;51.262;7.066;2022-12-26T19:13:01;11.52;;;2.47;;
24161;SDS011;12318;51.262;7.066;2022-12-26T19:15:30;12.93;;;2.50;;
24161;SDS011;12318;51.262;7.066;2022-12-26T19:17:56;10.48;;;2.33;;
24161;SDS011;12318;51.262;7.066;2022-12-26T19:20:22;8.55;;;2.28;;
24161;SDS011;12318;51.262;7.066;2022-12-26T19:22:50;10.35;;;2.55;;
24161;SDS011;12318;51.262;7.066;2022-12-26T19:28:11;10.98;;;2.47;;
24161;SDS011;12318;51.262;7.066;2022-12-26T19:30:39;12.15;;;2.38;;
24161;SDS011;12318;51.262;7.066;2022-12-26T19:33:05;12.57;;;2.53;;
24161;SDS011;12318;51.262;7.066;2022-12-26T19:35:31;17.88;;;2.90;;
24161;SDS011;12318;51.262;7.066;2022-12-26T19:37:57;12.55;;;2.28;;
24161;SDS011;12318;51.262;7.066;2022-12-26T19:40:23;12.73;;;2.50;;
24161;SDS011;12318;51.262;7.066;2022-12-26T19:42:49;8.23;;;2.30;;
24161;SDS011;12318;51.262;7.066;2022-12-26T19:45:15;13.80;;;2.78;;
24161;SDS011;12318;51.262;7.066;2022-12-26T19:47:44;11.38;;;2.20;;
24161;SDS011;12318;51.262;7.066;2022-12-26T19:50:10;12.57;;;2.50;;
24161;SDS011;12318;51.262;7.066;2022-12-26T19:52:36;13.05;;;2.67;;
24161;SDS011;12318;51.262;7.066;2022-12-26T19:55:06;11.30;;;2.75;;
24161;SDS011;12318;51.262;7.066;2022-12-26T19:59:59;12.68;;;2.58;;
24161;SDS011;12318;51.262;7.066;2022-12-26T20:02:25;10.27;;;2.83;;
24161;SDS011;12318;51.262;7.066;2022-12-26T20:04:51;11.70;;;2.55;;
24161;SDS011;12318;51.262;7.066;2022-12-26T20:07:24;12.20;;;2.80;;
24161;SDS011;12318;51.262;7.066;2022-12-26T20:09:50;22.70;;;3.22;;